sensor_id;sensor_type;location;lat;lon;timestamp;pressure;altitude;pressure_sealevel;temperature
37414;BMP280;23279;46.472;30.760;2022-12-24T00:01:09;76969.84;;;-146.33
37414;BMP280;23279;46.472;30.760;2022-12-24T00:03:35;76980.03;;;-146.33
37414;BMP280;23279;46.472;30.760;2022-12-24T00:06:05;76990.19;;;-146.33
37414;BMP280;23279;46.472;30.760;2022-12-24T00:08:30;77014.59;;;-146.33
37414;BMP280;23279;46.472;30.760;2022-12-24T00:10:55;77030.88;;;-146.33
37414;BMP280;23279;46.472;30.760;2022-12-24T00:13:21;77063.41;;;-146.33
37414;BMP280;23279;46.472;30.760;2022-12-24T00:15:46;77069.53;;;-146.33
37414;BMP280;23279;46.472;30.760;2022-12-24T00:18:12;77093.94;;;-146.33
37414;BMP280;23279;46.472;30.760;2022-12-24T00:20:37;77128.50;;;-146.33
37414;BMP280;23279;46.472;30.760;2022-12-24T00:23:02;77177.34;;;-146.33
37414;BMP280;23279;46.472;30.760;2022-12-24T00:25:27;77193.63;;;-146.33
37414;BMP280;23279;46.472;30.760;2022-12-24T00:27:53;77254.66;;;-146.33
37414;BMP280;23279;46.472;30.760;2022-12-24T00:30:18;77303.47;;;-146.33
37414;BMP280;23279;46.472;30.760;2022-12-24T00:32:43;77297.38;;;-146.33
37414;BMP280;23279;46.472;30.760;2022-12-24T00:35:08;77323.81;;;-146.33
37414;BMP280;23279;46.472;30.760;2022-12-24T00:37:34;77297.38;;;-146.33
37414;BMP280;23279;46.472;30.760;2022-12-24T00:39:59;77211.94;;;-146.33
37414;BMP280;23279;46.472;30.760;2022-12-24T00:42:24;77165.13;;;-146.33
37414;BMP280;23279;46.472;30.760;2022-12-24T00:44:49;77148.84;;;-146.33
37414;BMP280;23279;46.472;30.760;2022-12-24T00:47:15;77114.28;;;-146.33
37414;BMP280;23279;46.472;30.760;2022-12-24T00:49:40;77106.13;;;-146.33
37414;BMP280;23279;46.472;30.760;2022-12-24T00:52:05;77130.56;;;-146.33
37414;BMP280;23279;46.472;30.760;2022-12-24T00:54:30;77134.63;;;-146.33
37414;BMP280;23279;46.472;30.760;2022-12-24T00:56:56;77165.13;;;-146.33
37414;BMP280;23279;46.472;30.760;2022-12-24T00:59:21;77171.25;;;-146.33
37414;BMP280;23279;46.472;30.760;2022-12-24T01:01:46;77126.47;;;-146.33
37414;BMP280;23279;46.472;30.760;2022-12-24T01:04:12;77112.25;;;-146.33
37414;BMP280;23279;46.472;30.760;2022-12-24T01:06:55;77116.31;;;-146.33
37414;BMP280;23279;46.472;30.760;2022-12-24T01:09:21;77150.91;;;-146.33
37414;BMP280;23279;46.472;30.760;2022-12-24T01:11:46;77169.19;;;-146.33
37414;BMP280;23279;46.472;30.760;2022-12-24T01:14:11;77165.13;;;-146.33
37414;BMP280;23279;46.472;30.760;2022-12-24T01:16:37;77173.28;;;-146.33
37414;BMP280;23279;46.472;30.760;2022-12-24T01:19:02;77203.78;;;-146.33
37414;BMP280;23279;46.472;30.760;2022-12-24T01:21:27;77154.97;;;-146.33
37414;BMP280;23279;46.472;30.760;2022-12-24T01:23:52;77157.00;;;-146.33
37414;BMP280;23279;46.472;30.760;2022-12-24T01:26:18;77161.06;;;-146.33
37414;BMP280;23279;46.472;30.760;2022-12-24T01:28:43;77197.69;;;-146.33
37414;BMP280;23279;46.472;30.760;2022-12-24T01:31:09;77207.84;;;-146.33
37414;BMP280;23279;46.472;30.760;2022-12-24T01:33:35;77177.34;;;-146.33
37414;BMP280;23279;46.472;30.760;2022-12-24T01:36:01;77165.13;;;-146.33
37414;BMP280;23279;46.472;30.760;2022-12-24T01:38:26;77193.63;;;-146.33
37414;BMP280;23279;46.472;30.760;2022-12-24T01:40:51;77218.03;;;-146.33
37414;BMP280;23279;46.472;30.760;2022-12-24T01:43:35;77201.75;;;-146.33
37414;BMP280;23279;46.472;30.760;2022-12-24T01:46:04;77234.31;;;-146.33
37414;BMP280;23279;46.472;30.760;2022-12-24T01:48:49;77242.44;;;-146.33
37414;BMP280;23279;46.472;30.760;2022-12-24T01:53:42;77370.59;;;-146.33
37414;BMP280;23279;46.472;30.760;2022-12-24T01:56:09;77392.97;;;-146.33
37414;BMP280;23279;46.472;30.760;2022-12-24T01:58:35;77431.63;;;-146.33
37414;BMP280;23279;46.472;30.760;2022-12-24T02:01:01;77494.72;;;-146.33
37414;BMP280;23279;46.472;30.760;2022-12-24T02:03:27;77517.09;;;-146.33
37414;BMP280;23279;46.472;30.760;2022-12-24T02:05:53;77551.69;;;-146.33
37414;BMP280;23279;46.472;30.760;2022-12-24T02:08:19;77539.47;;;-146.33
37414;BMP280;23279;46.472;30.760;2022-12-24T02:10:45;77572.03;;;-146.33
37414;BMP280;23279;46.472;30.760;2022-12-24T02:13:11;77567.94;;;-146.33
37414;BMP280;23279;46.472;30.760;2022-12-24T02:15:40;77559.81;;;-146.33
37414;BMP280;23279;46.472;30.760;2022-12-24T02:18:11;77582.19;;;-146.33
37414;BMP280;23279;46.472;30.760;2022-12-24T02:30:32;77714.44;;;-146.33
37414;BMP280;23279;46.472;30.760;2022-12-24T02:35:33;77767.34;;;-146.33
37414;BMP280;23279;46.472;30.760;2022-12-24T02:40:32;77637.13;;;-146.33
37414;BMP280;23279;46.472;30.760;2022-12-24T02:43:02;77637.13;;;-146.33
37414;BMP280;23279;46.472;30.760;2022-12-24T02:45:29;77624.91;;;-146.33
37414;BMP280;23279;46.472;30.760;2022-12-24T02:47:55;77612.72;;;-146.33
37414;BMP280;23279;46.472;30.760;2022-12-24T02:50:20;77604.56;;;-146.33
37414;BMP280;23279;46.472;30.760;2022-12-24T02:52:46;77563.88;;;-146.33
37414;BMP280;23279;46.472;30.760;2022-12-24T03:00:15;77527.25;;;-146.33
37414;BMP280;23279;46.472;30.760;2022-12-24T03:02:49;77510.97;;;-146.33
37414;BMP280;23279;46.472;30.760;2022-12-24T03:05:25;77527.25;;;-146.33
37414;BMP280;23279;46.472;30.760;2022-12-24T03:07:58;77480.47;;;-146.33
37414;BMP280;23279;46.472;30.760;2022-12-24T03:10:38;77435.72;;;-146.33
37414;BMP280;23279;46.472;30.760;2022-12-24T03:13:09;77464.19;;;-146.33
37414;BMP280;23279;46.472;30.760;2022-12-24T03:15:37;77480.47;;;-146.33
37414;BMP280;23279;46.472;30.760;2022-12-24T03:18:03;77472.34;;;-146.33
37414;BMP280;23279;46.472;30.760;2022-12-24T03:20:31;77519.13;;;-146.33
37414;BMP280;23279;46.472;30.760;2022-12-24T03:22:57;77539.47;;;-146.33
37414;BMP280;23279;46.472;30.760;2022-12-24T03:25:23;77508.94;;;-146.33
37414;BMP280;23279;46.472;30.760;2022-12-24T03:27:49;77490.63;;;-146.33
37414;BMP280;23279;46.472;30.760;2022-12-24T03:30:15;77445.88;;;-146.33
37414;BMP280;23279;46.472;30.760;2022-12-24T03:32:42;77384.84;;;-146.33
37414;BMP280;23279;46.472;30.760;2022-12-24T03:35:07;77344.16;;;-146.33
37414;BMP280;23279;46.472;30.760;2022-12-24T03:37:32;77362.47;;;-146.33
37414;BMP280;23279;46.472;30.760;2022-12-24T03:39:58;77427.56;;;-146.33
37414;BMP280;23279;46.472;30.760;2022-12-24T03:42:23;77392.97;;;-146.33
37414;BMP280;23279;46.472;30.760;2022-12-24T03:44:48;77417.41;;;-146.33
37414;BMP280;23279;46.472;30.760;2022-12-24T03:47:14;77437.75;;;-146.33
37414;BMP280;23279;46.472;30.760;2022-12-24T03:49:39;77445.88;;;-146.33
37414;BMP280;23279;46.472;30.760;2022-12-24T03:52:04;77441.81;;;-146.33
37414;BMP280;23279;46.472;30.760;2022-12-24T03:54:30;77510.97;;;-146.33
37414;BMP280;23279;46.472;30.760;2022-12-24T03:56:55;77498.78;;;-146.33
37414;BMP280;23279;46.472;30.760;2022-12-24T03:59:20;77502.84;;;-146.33
37414;BMP280;23279;46.472;30.760;2022-12-24T04:01:45;77523.19;;;-146.33
37414;BMP280;23279;46.472;30.760;2022-12-24T04:04:11;77486.56;;;-146.33
37414;BMP280;23279;46.472;30.760;2022-12-24T04:06:36;77466.22;;;-146.33
37414;BMP280;23279;46.472;30.760;2022-12-24T04:09:01;77433.69;;;-146.33
37414;BMP280;23279;46.472;30.760;2022-12-24T04:11:29;77368.56;;;-146.33
37414;BMP280;23279;46.472;30.760;2022-12-24T04:13:54;77283.13;;;-146.33
37414;BMP280;23279;46.472;30.760;2022-12-24T04:16:20;77218.03;;;-146.33
37414;BMP280;23279;46.472;30.760;2022-12-24T04:18:45;77203.78;;;-146.33
37414;BMP280;23279;46.472;30.760;2022-12-24T04:21:10;77213.97;;;-146.33
37414;BMP280;23279;46.472;30.760;2022-12-24T04:23:36;77195.66;;;-146.33
37414;BMP280;23279;46.472;30.760;2022-12-24T04:26:02;77185.47;;;-146.33
37414;BMP280;23279;46.472;30.760;2022-12-24T04:28:28;77209.88;;;-146.33
37414;BMP280;23279;46.472;30.760;2022-12-24T04:31:00;77291.25;;;-146.33
37414;BMP280;23279;46.472;30.760;2022-12-24T04:33:26;77270.91;;;-146.33
37414;BMP280;23279;46.472;30.760;2022-12-24T04:35:51;77275.00;;;-146.33
37414;BMP280;23279;46.472;30.760;2022-12-24T04:38:16;77252.63;;;-146.33
37414;BMP280;23279;46.472;30.760;2022-12-24T04:40:41;77270.91;;;-146.33
37414;BMP280;23279;46.472;30.760;2022-12-24T04:43:07;77266.84;;;-146.33
37414;BMP280;23279;46.472;30.760;2022-12-24T04:45:32;77262.78;;;-146.33
37414;BMP280;23279;46.472;30.760;2022-12-24T04:47:57;77297.38;;;-146.33
37414;BMP280;23279;46.472;30.760;2022-12-24T04:50:22;77246.50;;;-146.33
37414;BMP280;23279;46.472;30.760;2022-12-24T04:52:48;77262.78;;;-146.33
37414;BMP280;23279;46.472;30.760;2022-12-24T04:55:13;77264.81;;;-146.33
37414;BMP280;23279;46.472;30.760;2022-12-24T04:57:39;77303.47;;;-146.33
37414;BMP280;23279;46.472;30.760;2022-12-24T05:00:04;77319.75;;;-146.33
37414;BMP280;23279;46.472;30.760;2022-12-24T05:02:30;77319.75;;;-146.33
37414;BMP280;23279;46.472;30.760;2022-12-24T05:04:55;77301.44;;;-146.33
37414;BMP280;23279;46.472;30.760;2022-12-24T05:07:20;77299.41;;;-146.33
37414;BMP280;23279;46.472;30.760;2022-12-24T05:09:45;77305.50;;;-146.33
37414;BMP280;23279;46.472;30.760;2022-12-24T05:12:11;77336.03;;;-146.33
37414;BMP280;23279;46.472;30.760;2022-12-24T05:14:36;77370.59;;;-146.33
37414;BMP280;23279;46.472;30.760;2022-12-24T05:17:01;77427.56;;;-146.33
37414;BMP280;23279;46.472;30.760;2022-12-24T05:19:27;77443.84;;;-146.33
37414;BMP280;23279;46.472;30.760;2022-12-24T05:21:52;77488.59;;;-146.33
37414;BMP280;23279;46.472;30.760;2022-12-24T05:24:36;77494.72;;;-146.33
37414;BMP280;23279;46.472;30.760;2022-12-24T05:27:20;77572.03;;;-146.33
37414;BMP280;23279;46.472;30.760;2022-12-24T05:29:45;77557.78;;;-146.33
37414;BMP280;23279;46.472;30.760;2022-12-24T05:32:10;77502.84;;;-146.33
37414;BMP280;23279;46.472;30.760;2022-12-24T05:34:36;77537.44;;;-146.33
37414;BMP280;23279;46.472;30.760;2022-12-24T05:37:01;77515.06;;;-146.33
37414;BMP280;23279;46.472;30.760;2022-12-24T05:39:26;77502.84;;;-146.33
37414;BMP280;23279;46.472;30.760;2022-12-24T05:41:51;77496.75;;;-146.33
37414;BMP280;23279;46.472;30.760;2022-12-24T05:44:17;77498.78;;;-146.33
37414;BMP280;23279;46.472;30.760;2022-12-24T05:46:42;77555.75;;;-146.33
37414;BMP280;23279;46.472;30.760;2022-12-24T05:49:07;77494.72;;;-146.33
37414;BMP280;23279;46.472;30.760;2022-12-24T05:51:33;77494.72;;;-146.33
37414;BMP280;23279;46.472;30.760;2022-12-24T05:53:58;77504.88;;;-146.33
37414;BMP280;23279;46.472;30.760;2022-12-24T05:56:23;77523.19;;;-146.33
37414;BMP280;23279;46.472;30.760;2022-12-24T05:58:49;77549.66;;;-146.33
37414;BMP280;23279;46.472;30.760;2022-12-24T06:01:16;77598.47;;;-146.33
37414;BMP280;23279;46.472;30.760;2022-12-24T06:03:41;77543.53;;;-146.33
37414;BMP280;23279;46.472;30.760;2022-12-24T06:06:07;77584.22;;;-146.33
37414;BMP280;23279;46.472;30.760;2022-12-24T06:08:33;77584.22;;;-146.33
37414;BMP280;23279;46.472;30.760;2022-12-24T06:10:59;77651.38;;;-146.33
37414;BMP280;23279;46.472;30.760;2022-12-24T06:13:25;77677.81;;;-146.33
37414;BMP280;23279;46.472;30.760;2022-12-24T06:15:54;77679.84;;;-146.33
37414;BMP280;23279;46.472;30.760;2022-12-24T06:18:19;77629.00;;;-146.33
37414;BMP280;23279;46.472;30.760;2022-12-24T06:20:45;77661.53;;;-146.33
37414;BMP280;23279;46.472;30.760;2022-12-24T06:23:10;77679.84;;;-146.33
37414;BMP280;23279;46.472;30.760;2022-12-24T06:25:35;77706.31;;;-146.33
37414;BMP280;23279;46.472;30.760;2022-12-24T06:28:01;77734.78;;;-146.33
37414;BMP280;23279;46.472;30.760;2022-12-24T06:30:26;77708.34;;;-146.33
37414;BMP280;23279;46.472;30.760;2022-12-24T06:32:51;77734.78;;;-146.33
37414;BMP280;23279;46.472;30.760;2022-12-24T06:35:16;77753.09;;;-146.33
37414;BMP280;23279;46.472;30.760;2022-12-24T06:37:42;77751.06;;;-146.33
37414;BMP280;23279;46.472;30.760;2022-12-24T06:40:07;77769.38;;;-146.33
37414;BMP280;23279;46.472;30.760;2022-12-24T06:42:33;77767.34;;;-146.33
37414;BMP280;23279;46.472;30.760;2022-12-24T06:44:58;77744.97;;;-146.33
37414;BMP280;23279;46.472;30.760;2022-12-24T06:47:23;77726.66;;;-146.33
37414;BMP280;23279;46.472;30.760;2022-12-24T06:49:49;77667.66;;;-146.33
37414;BMP280;23279;46.472;30.760;2022-12-24T06:52:14;77635.09;;;-146.33
37414;BMP280;23279;46.472;30.760;2022-12-24T06:54:39;77596.44;;;-146.33
37414;BMP280;23279;46.472;30.760;2022-12-24T06:57:05;77567.94;;;-146.33
37414;BMP280;23279;46.472;30.760;2022-12-24T06:59:31;77586.25;;;-146.33
37414;BMP280;23279;46.472;30.760;2022-12-24T07:01:56;77600.50;;;-146.33
37414;BMP280;23279;46.472;30.760;2022-12-24T07:04:21;77588.31;;;-146.33
37414;BMP280;23279;46.472;30.760;2022-12-24T07:06:47;77594.41;;;-146.33
37414;BMP280;23279;46.472;30.760;2022-12-24T07:09:12;77590.34;;;-146.33
37414;BMP280;23279;46.472;30.760;2022-12-24T07:11:38;77594.41;;;-146.33
37414;BMP280;23279;46.472;30.760;2022-12-24T07:14:03;77559.81;;;-146.33
37414;BMP280;23279;46.472;30.760;2022-12-24T07:16:29;77547.59;;;-146.33
37414;BMP280;23279;46.472;30.760;2022-12-24T07:18:54;77555.75;;;-146.33
37414;BMP280;23279;46.472;30.760;2022-12-24T07:21:19;77616.78;;;-146.33
37414;BMP280;23279;46.472;30.760;2022-12-24T07:23:44;77592.38;;;-146.33
37414;BMP280;23279;46.472;30.760;2022-12-24T07:26:10;77659.50;;;-146.33
37414;BMP280;23279;46.472;30.760;2022-12-24T07:28:35;77629.00;;;-146.33
37414;BMP280;23279;46.472;30.760;2022-12-24T07:31:00;77663.59;;;-146.33
37414;BMP280;23279;46.472;30.760;2022-12-24T07:33:26;77698.16;;;-146.33
37414;BMP280;23279;46.472;30.760;2022-12-24T07:35:58;77728.69;;;-146.33
37414;BMP280;23279;46.472;30.760;2022-12-24T07:38:24;77728.69;;;-146.33
37414;BMP280;23279;46.472;30.760;2022-12-24T07:40:49;77775.50;;;-146.33
37414;BMP280;23279;46.472;30.760;2022-12-24T07:43:15;77783.63;;;-146.33
37414;BMP280;23279;46.472;30.760;2022-12-24T07:45:40;77818.22;;;-146.33
37414;BMP280;23279;46.472;30.760;2022-12-24T07:48:05;77801.94;;;-146.33
37414;BMP280;23279;46.472;30.760;2022-12-24T07:50:30;77867.06;;;-146.33
37414;BMP280;23279;46.472;30.760;2022-12-24T07:52:56;77924.03;;;-146.33
37414;BMP280;23279;46.472;30.760;2022-12-24T07:55:21;77917.94;;;-146.33
37414;BMP280;23279;46.472;30.760;2022-12-24T07:57:47;77966.75;;;-146.33
37414;BMP280;23279;46.472;30.760;2022-12-24T08:00:13;77907.75;;;-146.33
37414;BMP280;23279;46.472;30.760;2022-12-24T08:02:38;77938.28;;;-146.33
37414;BMP280;23279;46.472;30.760;2022-12-24T08:05:03;77919.97;;;-146.33
37414;BMP280;23279;46.472;30.760;2022-12-24T08:07:29;77942.34;;;-146.33
37414;BMP280;23279;46.472;30.760;2022-12-24T08:09:54;77932.16;;;-146.33
37414;BMP280;23279;46.472;30.760;2022-12-24T08:12:19;77917.94;;;-146.33
37414;BMP280;23279;46.472;30.760;2022-12-24T08:14:45;77905.72;;;-146.33
37414;BMP280;23279;46.472;30.760;2022-12-24T08:17:10;77930.13;;;-146.33
37414;BMP280;23279;46.472;30.760;2022-12-24T08:19:35;77911.81;;;-146.33
37414;BMP280;23279;46.472;30.760;2022-12-24T08:22:00;77991.19;;;-146.33
37414;BMP280;23279;46.472;30.760;2022-12-24T08:24:26;78011.53;;;-146.33
37414;BMP280;23279;46.472;30.760;2022-12-24T08:26:51;77989.16;;;-146.33
37414;BMP280;23279;46.472;30.760;2022-12-24T08:29:16;77962.69;;;-146.33
37414;BMP280;23279;46.472;30.760;2022-12-24T08:31:42;77928.09;;;-146.33
37414;BMP280;23279;46.472;30.760;2022-12-24T08:34:07;77991.19;;;-146.33
37414;BMP280;23279;46.472;30.760;2022-12-24T08:36:33;77928.09;;;-146.33
37414;BMP280;23279;46.472;30.760;2022-12-24T08:38:58;77952.53;;;-146.33
37414;BMP280;23279;46.472;30.760;2022-12-24T08:41:27;77926.06;;;-146.33
37414;BMP280;23279;46.472;30.760;2022-12-24T08:43:52;77978.97;;;-146.33
37414;BMP280;23279;46.472;30.760;2022-12-24T08:46:18;78001.34;;;-146.33
37414;BMP280;23279;46.472;30.760;2022-12-24T08:48:43;77991.19;;;-146.33
37414;BMP280;23279;46.472;30.760;2022-12-24T08:51:09;77972.88;;;-146.33
37414;BMP280;23279;46.472;30.760;2022-12-24T08:53:35;78015.59;;;-146.33
37414;BMP280;23279;46.472;30.760;2022-12-24T08:56:04;77983.03;;;-146.33
37414;BMP280;23279;46.472;30.760;2022-12-24T08:58:30;78009.50;;;-146.33
37414;BMP280;23279;46.472;30.760;2022-12-24T09:00:55;78009.50;;;-146.33
37414;BMP280;23279;46.472;30.760;2022-12-24T09:03:21;78029.84;;;-146.33
37414;BMP280;23279;46.472;30.760;2022-12-24T09:05:46;78072.56;;;-146.33
37414;BMP280;23279;46.472;30.760;2022-12-24T09:08:11;78021.69;;;-146.33
37414;BMP280;23279;46.472;30.760;2022-12-24T09:10:37;78005.44;;;-146.33
37414;BMP280;23279;46.472;30.760;2022-12-24T09:13:02;78007.47;;;-146.33
37414;BMP280;23279;46.472;30.760;2022-12-24T09:15:27;78017.63;;;-146.33
37414;BMP280;23279;46.472;30.760;2022-12-24T09:17:53;78017.63;;;-146.33
37414;BMP280;23279;46.472;30.760;2022-12-24T09:20:18;78029.84;;;-146.33
37414;BMP280;23279;46.472;30.760;2022-12-24T09:22:43;77995.25;;;-146.33
37414;BMP280;23279;46.472;30.760;2022-12-24T09:25:08;77978.97;;;-146.33
37414;BMP280;23279;46.472;30.760;2022-12-24T09:27:34;77966.75;;;-146.33
37414;BMP280;23279;46.472;30.760;2022-12-24T09:30:00;77981.00;;;-146.33
37414;BMP280;23279;46.472;30.760;2022-12-24T09:32:25;78017.63;;;-146.33
37414;BMP280;23279;46.472;30.760;2022-12-24T09:34:50;78011.53;;;-146.33
37414;BMP280;23279;46.472;30.760;2022-12-24T09:37:16;77964.72;;;-146.33
37414;BMP280;23279;46.472;30.760;2022-12-24T09:39:41;77976.94;;;-146.33
37414;BMP280;23279;46.472;30.760;2022-12-24T09:42:14;77968.78;;;-146.33
37414;BMP280;23279;46.472;30.760;2022-12-24T09:47:24;77954.56;;;-146.33
37414;BMP280;23279;46.472;30.760;2022-12-24T09:49:50;77985.06;;;-146.33
37414;BMP280;23279;46.472;30.760;2022-12-24T09:52:28;77999.31;;;-146.33
37414;BMP280;23279;46.472;30.760;2022-12-24T09:55:00;78017.63;;;-146.33
37414;BMP280;23279;46.472;30.760;2022-12-24T09:57:28;78013.56;;;-146.33
37414;BMP280;23279;46.472;30.760;2022-12-24T09:59:54;77991.19;;;-146.33
37414;BMP280;23279;46.472;30.760;2022-12-24T10:02:19;78003.38;;;-146.33
37414;BMP280;23279;46.472;30.760;2022-12-24T10:04:45;78015.59;;;-146.33
37414;BMP280;23279;46.472;30.760;2022-12-24T10:12:31;77981.00;;;-146.33
37414;BMP280;23279;46.472;30.760;2022-12-24T10:20:24;77932.16;;;-146.33
37414;BMP280;23279;46.472;30.760;2022-12-24T10:23:10;77865.03;;;-146.33
37414;BMP280;23279;46.472;30.760;2022-12-24T10:25:43;77877.22;;;-146.33
37414;BMP280;23279;46.472;30.760;2022-12-24T10:28:14;77885.38;;;-146.33
37414;BMP280;23279;46.472;30.760;2022-12-24T10:30:40;77875.19;;;-146.33
37414;BMP280;23279;46.472;30.760;2022-12-24T10:33:12;77919.97;;;-146.33
37414;BMP280;23279;46.472;30.760;2022-12-24T10:35:38;78031.88;;;-146.33
37414;BMP280;23279;46.472;30.760;2022-12-24T10:38:06;78023.75;;;-146.33
37414;BMP280;23279;46.472;30.760;2022-12-24T10:43:00;77966.75;;;-146.33
37414;BMP280;23279;46.472;30.760;2022-12-24T10:45:36;77832.47;;;-146.33
37414;BMP280;23279;46.472;30.760;2022-12-24T10:48:04;77814.16;;;-146.33
37414;BMP280;23279;46.472;30.760;2022-12-24T10:50:36;77799.91;;;-146.33
37414;BMP280;23279;46.472;30.760;2022-12-24T10:53:12;77905.72;;;-146.33
37414;BMP280;23279;46.472;30.760;2022-12-24T10:55:38;77881.31;;;-146.33
37414;BMP280;23279;46.472;30.760;2022-12-24T10:58:04;77828.41;;;-146.33
37414;BMP280;23279;46.472;30.760;2022-12-24T11:00:31;77856.88;;;-146.33
37414;BMP280;23279;46.472;30.760;2022-12-24T11:03:07;77944.38;;;-146.33
37414;BMP280;23279;46.472;30.760;2022-12-24T11:05:44;77989.16;;;-146.33
37414;BMP280;23279;46.472;30.760;2022-12-24T11:10:38;78044.09;;;-146.33
37414;BMP280;23279;46.472;30.760;2022-12-24T11:13:04;78060.38;;;-146.33
37414;BMP280;23279;46.472;30.760;2022-12-24T11:15:32;78115.31;;;-146.33
37414;BMP280;23279;46.472;30.760;2022-12-24T11:17:59;78054.25;;;-146.33
37414;BMP280;23279;46.472;30.760;2022-12-24T11:20:28;78007.47;;;-146.33
37414;BMP280;23279;46.472;30.760;2022-12-24T11:22:53;77911.81;;;-146.33
37414;BMP280;23279;46.472;30.760;2022-12-24T11:27:45;77905.72;;;-146.33
37414;BMP280;23279;46.472;30.760;2022-12-24T11:32:39;77869.09;;;-146.33
37414;BMP280;23279;46.472;30.760;2022-12-24T11:35:05;77869.09;;;-146.33
37414;BMP280;23279;46.472;30.760;2022-12-24T11:37:31;77763.28;;;-146.33
37414;BMP280;23279;46.472;30.760;2022-12-24T11:39:57;77757.19;;;-146.33
37414;BMP280;23279;46.472;30.760;2022-12-24T11:42:33;77679.84;;;-146.33
37414;BMP280;23279;46.472;30.760;2022-12-24T11:45:01;77555.75;;;-146.33
37414;BMP280;23279;46.472;30.760;2022-12-24T11:47:39;77513.03;;;-146.33
37414;BMP280;23279;46.472;30.760;2022-12-24T11:53:16;77421.47;;;-146.33
37414;BMP280;23279;46.472;30.760;2022-12-24T11:55:48;77399.09;;;-146.33
37414;BMP280;23279;46.472;30.760;2022-12-24T12:00:42;77325.84;;;-146.33
37414;BMP280;23279;46.472;30.760;2022-12-24T12:03:16;77350.25;;;-146.33
37414;BMP280;23279;46.472;30.760;2022-12-24T12:05:44;77311.59;;;-146.33
37414;BMP280;23279;46.472;30.760;2022-12-24T12:08:12;77289.22;;;-146.33
37414;BMP280;23279;46.472;30.760;2022-12-24T12:10:39;77295.34;;;-146.33
37414;BMP280;23279;46.472;30.760;2022-12-24T12:13:10;77356.38;;;-146.33
37414;BMP280;23279;46.472;30.760;2022-12-24T12:15:37;77510.97;;;-146.33
37414;BMP280;23279;46.472;30.760;2022-12-24T12:18:11;77688.00;;;-146.33
37414;BMP280;23279;46.472;30.760;2022-12-24T12:20:38;77877.22;;;-146.33
37414;BMP280;23279;46.472;30.760;2022-12-24T12:23:15;77966.75;;;-146.33
37414;BMP280;23279;46.472;30.760;2022-12-24T12:25:52;78076.66;;;-146.33
37414;BMP280;23279;46.472;30.760;2022-12-24T12:28:21;78174.31;;;-146.33
37414;BMP280;23279;46.472;30.760;2022-12-24T12:30:49;78233.34;;;-146.33
37414;BMP280;23279;46.472;30.760;2022-12-24T12:33:18;78151.94;;;-146.33
37414;BMP280;23279;46.472;30.760;2022-12-24T12:35:46;78135.66;;;-146.33
37414;BMP280;23279;46.472;30.760;2022-12-24T12:38:16;78094.97;;;-146.33
37414;BMP280;23279;46.472;30.760;2022-12-24T12:45:54;78202.81;;;-146.33
37414;BMP280;23279;46.472;30.760;2022-12-24T12:48:47;78204.84;;;-146.33
37414;BMP280;23279;46.472;30.760;2022-12-24T12:53:41;78272.00;;;-146.33
37414;BMP280;23279;46.472;30.760;2022-12-24T12:58:44;78335.09;;;-146.33
37414;BMP280;23279;46.472;30.760;2022-12-24T13:03:48;78316.78;;;-146.33
37414;BMP280;23279;46.472;30.760;2022-12-24T13:06:21;78377.84;;;-146.33
37414;BMP280;23279;46.472;30.760;2022-12-24T13:21:43;78394.13;;;-146.33
37414;BMP280;23279;46.472;30.760;2022-12-24T13:24:19;78499.94;;;-146.33
37414;BMP280;23279;46.472;30.760;2022-12-24T13:27:10;78501.97;;;-146.33
37414;BMP280;23279;46.472;30.760;2022-12-24T13:34:50;78532.50;;;-146.33
37414;BMP280;23279;46.472;30.760;2022-12-24T13:47:55;78501.97;;;-146.33
37414;BMP280;23279;46.472;30.760;2022-12-24T13:50:28;78479.59;;;-146.33
37414;BMP280;23279;46.472;30.760;2022-12-24T13:52:53;78445.00;;;-146.33
37414;BMP280;23279;46.472;30.760;2022-12-24T13:55:19;78438.91;;;-146.33
37414;BMP280;23279;46.472;30.760;2022-12-24T14:02:54;78392.09;;;-146.33
37414;BMP280;23279;46.472;30.760;2022-12-24T14:05:36;78414.47;;;-146.33
37414;BMP280;23279;46.472;30.760;2022-12-24T14:08:04;78445.00;;;-146.33
37414;BMP280;23279;46.472;30.760;2022-12-24T14:10:31;78459.25;;;-146.33
37414;BMP280;23279;46.472;30.760;2022-12-24T14:12:59;78481.63;;;-146.33
37414;BMP280;23279;46.472;30.760;2022-12-24T14:15:43;78516.22;;;-146.33
37414;BMP280;23279;46.472;30.760;2022-12-24T14:18:09;78526.41;;;-146.33
37414;BMP280;23279;46.472;30.760;2022-12-24T14:20:35;78522.34;;;-146.33
37414;BMP280;23279;46.472;30.760;2022-12-24T14:23:00;78491.81;;;-146.33
37414;BMP280;23279;46.472;30.760;2022-12-24T14:25:27;78487.72;;;-146.33
37414;BMP280;23279;46.472;30.760;2022-12-24T14:27:53;78499.94;;;-146.33
37414;BMP280;23279;46.472;30.760;2022-12-24T14:30:24;78471.44;;;-146.33
37414;BMP280;23279;46.472;30.760;2022-12-24T14:32:50;78469.41;;;-146.33
37414;BMP280;23279;46.472;30.760;2022-12-24T14:35:17;78459.25;;;-146.33
37414;BMP280;23279;46.472;30.760;2022-12-24T14:37:50;78463.31;;;-146.33
37414;BMP280;23279;46.472;30.760;2022-12-24T14:40:16;78475.53;;;-146.33
37414;BMP280;23279;46.472;30.760;2022-12-24T14:43:30;78457.22;;;-146.33
37414;BMP280;23279;46.472;30.760;2022-12-24T14:45:32;78438.91;;;-146.33
37414;BMP280;23279;46.472;30.760;2022-12-24T14:48:16;78414.47;;;-146.33
37414;BMP280;23279;46.472;30.760;2022-12-24T14:55:52;78213.00;;;-146.33
37414;BMP280;23279;46.472;30.760;2022-12-24T14:58:24;78145.84;;;-146.33
37414;BMP280;23279;46.472;30.760;2022-12-24T15:00:51;78105.13;;;-146.33
37414;BMP280;23279;46.472;30.760;2022-12-24T15:03:18;78113.28;;;-146.33
37414;BMP280;23279;46.472;30.760;2022-12-24T15:05:44;78129.56;;;-146.33
37414;BMP280;23279;46.472;30.760;2022-12-24T15:08:15;78151.94;;;-146.33
37414;BMP280;23279;46.472;30.760;2022-12-24T15:10:42;78198.75;;;-146.33
37414;BMP280;23279;46.472;30.760;2022-12-24T15:15:46;78255.72;;;-146.33
37414;BMP280;23279;46.472;30.760;2022-12-24T15:18:15;78257.75;;;-146.33